createdAt,value
2018-05-10T00:00:20.972Z,0.00
2018-05-10T00:01:21.149Z,0.00
2018-05-10T00:02:20.823Z,0.00
2018-05-10T00:03:20.751Z,0.00
2018-05-10T00:04:20.673Z,0.00
2018-05-10T00:05:20.602Z,0.00
2018-05-10T00:06:20.526Z,0.00
2018-05-10T00:07:20.436Z,0.00
2018-05-10T00:08:20.373Z,0.00
2018-05-10T00:09:20.285Z,0.00
2018-05-10T00:10:20.210Z,0.00
2018-05-10T00:11:20.135Z,0.00
2018-05-10T00:12:20.061Z,0.00
2018-05-10T00:13:19.985Z,0.00
2018-05-10T00:14:19.911Z,0.00
2018-05-10T00:15:19.825Z,0.00
2018-05-10T00:16:19.750Z,0.00
2018-05-10T00:17:19.674Z,0.00
2018-05-10T00:18:19.599Z,0.00
2018-05-10T00:19:19.524Z,0.00
2018-05-10T00:20:19.527Z,0.00
2018-05-10T00:21:19.374Z,0.00
2018-05-10T00:22:19.300Z,0.00
2018-05-10T00:23:19.212Z,0.00
2018-05-10T00:24:19.224Z,0.00
2018-05-10T00:25:19.062Z,0.00
2018-05-10T00:26:18.987Z,0.00
2018-05-10T00:27:18.915Z,0.00
2018-05-10T00:28:18.838Z,0.00
2018-05-10T00:29:18.762Z,0.00
2018-05-10T00:30:18.676Z,0.00
2018-05-10T00:31:18.851Z,0.00
2018-05-10T00:32:18.526Z,0.00
2018-05-10T00:33:18.451Z,0.00
2018-05-10T00:34:18.380Z,0.00
2018-05-10T00:35:18.301Z,0.00
2018-05-10T00:36:18.215Z,0.00
2018-05-10T00:37:18.139Z,0.00
2018-05-10T00:38:18.067Z,0.00
2018-05-10T00:39:17.989Z,0.00
2018-05-10T00:40:17.913Z,0.00
2018-05-10T00:41:17.839Z,0.00
2018-05-10T00:42:17.764Z,0.00
2018-05-10T00:43:17.680Z,0.00
2018-05-10T00:44:17.604Z,0.00
2018-05-10T00:45:17.527Z,0.00
2018-05-10T00:46:17.453Z,0.00
2018-05-10T00:47:17.380Z,0.00
2018-05-10T00:48:17.303Z,0.00
2018-05-10T00:49:17.228Z,0.00
2018-05-10T00:50:17.141Z,0.00
2018-05-10T00:51:17.068Z,0.00
2018-05-10T00:52:16.996Z,0.00
2018-05-10T00:53:16.916Z,0.00
2018-05-10T00:54:16.854Z,0.00
2018-05-10T00:55:16.765Z,0.00
2018-05-10T00:56:16.930Z,0.00
2018-05-10T00:57:16.604Z,0.00
2018-05-10T00:58:16.529Z,0.00
2018-05-10T00:59:16.456Z,0.00
2018-05-10T01:00:16.381Z,0.00
2018-05-10T01:01:16.309Z,0.00
2018-05-10T01:02:16.218Z,0.00
2018-05-10T01:03:16.142Z,0.00
2018-05-10T01:04:16.067Z,0.00
2018-05-10T01:05:15.996Z,0.00
2018-05-10T01:06:15.920Z,0.00
2018-05-10T01:07:15.842Z,0.00
2018-05-10T01:08:15.780Z,0.00
2018-05-10T01:09:15.696Z,0.00
2018-05-10T01:10:15.605Z,0.00
2018-05-10T01:11:15.542Z,0.00
2018-05-10T01:12:15.459Z,0.00
2018-05-10T01:13:15.381Z,0.00
2018-05-10T01:14:15.307Z,0.00
2018-05-10T01:15:15.232Z,0.00
2018-05-10T01:16:15.143Z,0.00
2018-05-10T01:17:15.069Z,0.00
2018-05-10T01:18:14.993Z,0.00
2018-05-10T01:19:14.919Z,0.00
2018-05-10T01:20:14.854Z,0.00
2018-05-10T01:21:14.769Z,0.00
2018-05-10T01:22:14.694Z,0.00
2018-05-10T01:23:14.607Z,0.00
2018-05-10T01:24:14.532Z,0.00
2018-05-10T01:25:14.457Z,0.00
2018-05-10T01:26:14.382Z,0.00
2018-05-10T01:27:14.308Z,0.00
2018-05-10T01:28:14.233Z,0.00
2018-05-10T01:29:14.158Z,0.00
2018-05-10T01:30:14.070Z,0.00
2018-05-10T01:31:13.996Z,0.00
2018-05-10T01:32:13.933Z,0.00
2018-05-10T01:33:13.845Z,0.00
2018-05-10T01:34:13.769Z,0.00
2018-05-10T01:35:13.695Z,0.00
2018-05-10T01:36:13.612Z,0.00
2018-05-10T01:37:13.533Z,0.00
2018-05-10T01:38:13.459Z,0.00
2018-05-10T01:39:13.384Z,0.00
2018-05-10T01:40:13.309Z,0.00
2018-05-10T01:41:13.234Z,0.00
2018-05-10T01:42:13.159Z,0.00
2018-05-10T01:43:13.071Z,0.00
2018-05-10T01:44:12.996Z,0.00
2018-05-10T01:45:12.921Z,0.00
2018-05-10T01:46:12.859Z,0.00
2018-05-10T01:47:12.772Z,0.00
2018-05-10T01:48:12.700Z,0.00
2018-05-10T01:49:12.621Z,0.00
2018-05-10T01:50:12.535Z,0.00
2018-05-10T01:51:12.460Z,0.00
2018-05-10T01:52:12.385Z,0.00
2018-05-10T01:53:12.325Z,0.00
2018-05-10T01:54:12.236Z,0.00
2018-05-10T01:55:12.161Z,0.00
2018-05-10T01:56:12.073Z,0.00
2018-05-10T01:57:11.997Z,0.00
2018-05-10T01:58:11.923Z,0.00
2018-05-10T01:59:11.861Z,0.00
2018-05-10T02:00:11.773Z,0.00
2018-05-10T02:01:11.724Z,0.00
2018-05-10T02:02:11.623Z,0.00
2018-05-10T02:03:11.537Z,0.00
2018-05-10T02:04:11.461Z,0.00
2018-05-10T02:05:11.387Z,0.00
2018-05-10T02:06:11.315Z,0.00
2018-05-10T02:07:11.243Z,0.00
2018-05-10T02:08:11.161Z,0.00
2018-05-10T02:09:11.088Z,0.00
2018-05-10T02:10:11.000Z,0.00
2018-05-10T02:11:10.923Z,0.00
2018-05-10T02:12:10.849Z,0.00
2018-05-10T02:13:10.777Z,0.00
2018-05-10T02:14:10.700Z,0.00
2018-05-10T02:15:10.624Z,0.00
2018-05-10T02:16:10.549Z,0.00
2018-05-10T02:17:10.463Z,0.00
2018-05-10T02:18:10.388Z,0.00
2018-05-10T02:19:10.313Z,0.00
2018-05-10T02:20:10.237Z,0.00
2018-05-10T02:21:10.164Z,0.00
2018-05-10T02:22:10.077Z,0.00
2018-05-10T02:23:10.000Z,0.00
2018-05-10T02:24:09.939Z,0.00
2018-05-10T02:25:09.851Z,0.00
2018-05-10T02:26:09.776Z,0.00
2018-05-10T02:27:09.700Z,0.00
2018-05-10T02:28:09.626Z,0.00
2018-05-10T02:29:09.539Z,0.00
2018-05-10T02:30:09.464Z,0.00
2018-05-10T02:31:09.389Z,0.00
2018-05-10T02:32:09.317Z,0.00
2018-05-10T02:33:09.241Z,0.00
2018-05-10T02:34:09.164Z,0.00
2018-05-10T02:35:09.090Z,0.00
2018-05-10T02:36:09.002Z,0.00
2018-05-10T02:37:08.926Z,0.00
2018-05-10T02:38:08.853Z,0.00
2018-05-10T02:39:08.777Z,0.00
2018-05-10T02:40:08.702Z,0.00
2018-05-10T02:41:08.620Z,0.00
2018-05-10T02:42:08.540Z,0.00
2018-05-10T02:43:08.466Z,0.00
2018-05-10T02:44:08.391Z,0.00
2018-05-10T02:45:08.324Z,0.00
2018-05-10T02:46:08.230Z,0.00
2018-05-10T02:47:08.153Z,4.00
2018-05-10T02:48:08.081Z,4.00
2018-05-10T02:49:08.004Z,0.00
2018-05-10T02:50:07.932Z,0.00
2018-05-10T02:51:07.853Z,0.00
2018-05-10T02:52:07.778Z,0.00
2018-05-10T02:53:07.692Z,0.00
2018-05-10T02:54:07.617Z,4.00
2018-05-10T02:55:07.542Z,4.00
2018-05-10T02:56:07.468Z,4.00
2018-05-10T02:57:07.393Z,8.00
2018-05-10T02:58:07.308Z,8.00
2018-05-10T02:59:07.230Z,8.00
2018-05-10T03:00:07.158Z,12.00
2018-05-10T03:01:07.079Z,12.00
2018-05-10T03:02:07.017Z,12.00
2018-05-10T03:03:06.929Z,12.00
2018-05-10T03:04:06.844Z,16.00
2018-05-10T03:05:06.780Z,20.00
2018-05-10T03:06:06.693Z,20.00
2018-05-10T03:07:06.618Z,24.00
2018-05-10T03:08:06.544Z,24.00
2018-05-10T03:09:06.473Z,28.00
2018-05-10T03:10:06.380Z,32.00
2018-05-10T03:11:06.305Z,36.00
2018-05-10T03:12:06.235Z,40.00
2018-05-10T03:13:06.162Z,44.00
2018-05-10T03:14:06.084Z,48.00
2018-05-10T03:15:06.006Z,56.00
2018-05-10T03:16:05.920Z,60.00
2018-05-10T03:17:05.845Z,68.00
2018-05-10T03:18:05.769Z,72.00
2018-05-10T03:19:05.701Z,84.00
2018-05-10T03:20:05.619Z,92.00
2018-05-10T03:21:05.545Z,100.00
2018-05-10T03:22:05.512Z,108.00
2018-05-10T03:23:05.381Z,112.00
2018-05-10T03:24:05.307Z,116.00
2018-05-10T03:25:05.231Z,116.00
2018-05-10T03:26:05.158Z,116.00
2018-05-10T03:27:05.087Z,120.00
2018-05-10T03:28:04.996Z,124.00
2018-05-10T03:29:04.922Z,128.00
2018-05-10T03:30:04.849Z,140.00
2018-05-10T03:31:04.773Z,152.00
2018-05-10T03:32:04.695Z,164.00
2018-05-10T03:33:04.621Z,172.00
2018-05-10T03:34:04.533Z,188.00
2018-05-10T03:35:04.458Z,196.00
2018-05-10T03:36:04.384Z,212.00
2018-05-10T03:37:04.311Z,228.00
2018-05-10T03:38:04.244Z,252.00
2018-05-10T03:39:04.159Z,268.00
2018-05-10T03:40:04.072Z,292.00
2018-05-10T03:41:03.996Z,304.00
2018-05-10T03:42:03.922Z,312.00
2018-05-10T03:43:03.847Z,324.00
2018-05-10T03:44:03.772Z,336.00
2018-05-10T03:45:03.697Z,352.00
2018-05-10T03:46:03.610Z,368.00
2018-05-10T03:47:03.534Z,384.00
2018-05-10T03:48:03.463Z,396.00
2018-05-10T03:49:03.384Z,404.00
2018-05-10T03:50:03.309Z,424.00
2018-05-10T03:51:03.235Z,440.00
2018-05-10T03:52:03.148Z,464.00
2018-05-10T03:53:03.074Z,488.00
2018-05-10T03:54:02.998Z,516.00
2018-05-10T03:55:02.924Z,544.00
2018-05-10T03:56:02.849Z,580.00
2018-05-10T03:57:02.774Z,596.00
2018-05-10T03:58:02.685Z,608.00
2018-05-10T03:59:02.611Z,636.00
2018-05-10T04:00:02.535Z,692.00
2018-05-10T04:01:02.461Z,764.00
2018-05-10T04:02:02.387Z,848.00
2018-05-10T04:03:02.311Z,916.00
2018-05-10T04:04:02.226Z,956.00
2018-05-10T04:05:02.149Z,964.00
2018-05-10T04:06:02.105Z,1000.00
2018-05-10T04:07:02.002Z,1036.00
2018-05-10T04:08:01.925Z,1068.00
2018-05-10T04:09:01.839Z,1080.00
2018-05-10T04:10:01.762Z,1112.00
2018-05-10T04:11:01.687Z,1168.00
2018-05-10T04:12:01.612Z,1248.00
2018-05-10T04:13:01.538Z,1316.00
2018-05-10T04:14:01.451Z,1376.00
2018-05-10T04:15:01.376Z,1440.00
2018-05-10T04:16:01.300Z,1496.00
2018-05-10T04:17:01.226Z,1536.00
2018-05-10T04:18:01.151Z,1580.00
2018-05-10T04:19:01.076Z,1604.00
2018-05-10T04:20:00.989Z,1632.00
2018-05-10T04:21:00.913Z,1656.00
2018-05-10T04:22:00.838Z,1676.00
2018-05-10T04:23:00.776Z,1704.00
2018-05-10T04:24:00.688Z,1724.00
2018-05-10T04:25:00.614Z,1692.00
2018-05-10T04:26:00.529Z,1612.00
2018-05-10T04:27:00.452Z,1516.00
2018-05-10T04:28:00.379Z,1444.00
2018-05-10T04:29:00.306Z,1396.00
2018-05-10T04:30:00.228Z,1368.00
2018-05-10T04:31:00.140Z,1344.00
2018-05-10T04:32:00.065Z,1348.00
2018-05-10T04:32:59.990Z,1384.00
2018-05-10T04:33:59.930Z,1472.00
2018-05-10T04:34:59.839Z,1544.00
2018-05-10T04:35:59.765Z,1688.00
2018-05-10T04:36:59.678Z,1876.00
2018-05-10T04:37:59.604Z,2040.00
2018-05-10T04:38:59.528Z,2200.00
2018-05-10T04:39:59.458Z,2308.00
2018-05-10T04:40:59.380Z,2372.00
2018-05-10T04:41:59.293Z,2440.00
2018-05-10T04:42:59.217Z,2508.00
2018-05-10T04:43:59.140Z,2596.00
2018-05-10T04:44:59.066Z,2720.00
2018-05-10T04:45:58.990Z,2820.00
2018-05-10T04:46:58.916Z,2828.00
2018-05-10T04:47:58.853Z,2820.00
2018-05-10T04:48:58.755Z,2788.00
2018-05-10T04:49:58.687Z,2736.00
2018-05-10T04:50:58.605Z,2672.00
2018-05-10T04:51:58.529Z,2644.00
2018-05-10T04:52:58.455Z,2612.00
2018-05-10T04:53:58.369Z,2632.00
2018-05-10T04:54:58.293Z,2708.00
2018-05-10T04:55:58.217Z,2800.00
2018-05-10T04:56:58.143Z,2880.00
2018-05-10T04:57:58.069Z,2952.00
2018-05-10T04:58:57.993Z,3004.00
2018-05-10T04:59:57.917Z,3044.00
2018-05-10T05:00:57.830Z,3060.00
2018-05-10T05:01:57.756Z,3128.00
2018-05-10T05:02:57.681Z,3224.00
2018-05-10T05:03:57.606Z,3292.00
2018-05-10T05:04:57.531Z,3288.00
2018-05-10T05:05:57.456Z,3256.00
2018-05-10T05:06:57.371Z,3268.00
2018-05-10T05:07:57.293Z,3336.00
2018-05-10T05:08:57.266Z,3392.00
2018-05-10T05:09:57.143Z,3448.00
2018-05-10T05:10:57.069Z,3428.00
2018-05-10T05:11:57.007Z,3444.00
2018-05-10T05:12:56.919Z,3456.00
2018-05-10T05:13:56.832Z,3432.00
2018-05-10T05:14:56.758Z,3428.00
2018-05-10T05:15:56.683Z,3360.00
2018-05-10T05:16:56.607Z,3264.00
2018-05-10T05:17:56.532Z,3224.00
2018-05-10T05:18:56.457Z,3252.00
2018-05-10T05:19:56.371Z,3360.00
2018-05-10T05:20:56.294Z,3452.00
2018-05-10T05:21:56.219Z,3576.00
2018-05-10T05:22:56.157Z,3636.00
2018-05-10T05:23:56.069Z,3632.00
2018-05-10T05:24:55.994Z,3680.00
2018-05-10T05:25:55.920Z,3760.00
2018-05-10T05:26:55.878Z,3844.00
2018-05-10T05:27:55.758Z,3932.00
2018-05-10T05:28:55.684Z,4008.00
2018-05-10T05:29:55.608Z,4116.00
2018-05-10T05:30:55.535Z,4272.00
2018-05-10T05:31:55.462Z,4380.00
2018-05-10T05:32:55.383Z,4588.00
2018-05-10T05:33:55.297Z,4780.00
2018-05-10T05:34:55.221Z,4900.00
2018-05-10T05:35:55.145Z,4872.00
2018-05-10T05:36:55.071Z,4844.00
2018-05-10T05:37:54.996Z,4952.00
2018-05-10T05:38:54.921Z,5108.00
2018-05-10T05:39:54.846Z,5236.00
2018-05-10T05:40:54.772Z,5416.00
2018-05-10T05:41:54.685Z,5500.00
2018-05-10T05:42:54.610Z,5468.00
2018-05-10T05:43:54.535Z,5336.00
2018-05-10T05:44:54.460Z,5324.00
2018-05-10T05:45:54.385Z,5400.00
2018-05-10T05:46:54.310Z,5508.00
2018-05-10T05:47:54.237Z,5664.00
2018-05-10T05:48:54.163Z,5820.00
2018-05-10T05:49:54.110Z,5944.00
2018-05-10T05:50:53.997Z,6060.00
2018-05-10T05:51:53.925Z,6172.00
2018-05-10T05:52:53.847Z,6264.00
2018-05-10T05:53:53.773Z,6312.00
2018-05-10T05:54:53.782Z,6260.00
2018-05-10T05:55:53.636Z,6132.00
2018-05-10T05:56:53.547Z,6016.00
2018-05-10T05:57:53.473Z,5904.00
2018-05-10T05:58:53.398Z,5908.00
2018-05-10T05:59:53.323Z,6056.00
2018-05-10T06:00:53.276Z,6224.00
2018-05-10T06:01:53.162Z,6520.00
2018-05-10T06:02:53.086Z,6856.00
2018-05-10T06:03:53.021Z,7060.00
2018-05-10T06:04:52.937Z,7116.00
2018-05-10T06:05:52.861Z,7324.00
2018-05-10T06:06:52.787Z,7280.00
2018-05-10T06:07:52.717Z,7060.00
2018-05-10T06:08:52.637Z,6968.00
2018-05-10T06:09:52.562Z,7080.00
2018-05-10T06:10:52.488Z,7208.00
2018-05-10T06:11:52.416Z,7096.00
2018-05-10T06:12:52.327Z,6668.00
2018-05-10T06:13:52.249Z,6468.00
2018-05-10T06:14:52.175Z,6400.00
2018-05-10T06:15:52.193Z,6364.00
2018-05-10T06:16:52.025Z,6288.00
2018-05-10T06:17:51.950Z,6252.00
2018-05-10T06:18:51.875Z,6364.00
2018-05-10T06:19:51.814Z,6404.00
2018-05-10T06:20:51.729Z,6240.00
2018-05-10T06:21:51.653Z,5860.00
2018-05-10T06:22:51.576Z,5376.00
2018-05-10T06:23:51.503Z,4928.00
2018-05-10T06:24:51.516Z,4460.00
2018-05-10T06:25:51.351Z,4332.00
2018-05-10T06:26:51.278Z,4568.00
2018-05-10T06:27:51.201Z,5128.00
2018-05-10T06:28:51.126Z,5776.00
2018-05-10T06:29:51.055Z,6212.00
2018-05-10T06:30:50.965Z,6480.00
2018-05-10T06:31:50.891Z,6680.00
2018-05-10T06:32:50.816Z,6916.00
2018-05-10T06:33:50.740Z,7220.00
2018-05-10T06:34:50.665Z,7464.00
2018-05-10T06:35:50.595Z,7724.00
2018-05-10T06:36:50.515Z,8052.00
2018-05-10T06:37:50.441Z,8328.00
2018-05-10T06:38:50.371Z,8608.00
2018-05-10T06:39:50.292Z,8884.00
2018-05-10T06:40:50.217Z,9028.00
2018-05-10T06:41:50.142Z,9112.00
2018-05-10T06:42:50.067Z,9112.00
2018-05-10T06:43:49.992Z,8940.00
2018-05-10T06:44:49.921Z,8916.00
2018-05-10T06:45:49.842Z,8864.00
2018-05-10T06:46:49.781Z,8788.00
2018-05-10T06:47:49.692Z,8740.00
2018-05-10T06:48:49.617Z,8752.00
2018-05-10T06:49:49.546Z,8732.00
2018-05-10T06:50:49.468Z,8524.00
2018-05-10T06:51:49.393Z,8192.00
2018-05-10T06:52:49.318Z,7860.00
2018-05-10T06:53:49.242Z,7540.00
2018-05-10T06:54:49.170Z,7172.00
2018-05-10T06:55:49.094Z,7200.00
2018-05-10T06:56:49.019Z,6956.00
2018-05-10T06:57:48.947Z,6816.00
2018-05-10T06:58:48.868Z,6776.00
2018-05-10T06:59:48.794Z,6676.00
2018-05-10T07:00:48.719Z,6204.00
2018-05-10T07:01:48.643Z,5168.00
2018-05-10T07:02:48.571Z,4444.00
2018-05-10T07:03:48.494Z,3812.00
2018-05-10T07:04:48.420Z,3472.00
2018-05-10T07:05:48.345Z,3484.00
2018-05-10T07:06:48.270Z,3728.00
2018-05-10T07:07:48.195Z,4072.00
2018-05-10T07:08:48.120Z,4476.00
2018-05-10T07:09:48.106Z,5152.00
2018-05-10T07:10:47.970Z,5860.00
2018-05-10T07:11:47.896Z,6320.00
2018-05-10T07:12:47.821Z,6528.00
2018-05-10T07:13:47.746Z,6740.00
2018-05-10T07:14:47.677Z,6716.00
2018-05-10T07:15:47.599Z,7016.00
2018-05-10T07:16:47.520Z,7380.00
2018-05-10T07:17:47.446Z,7756.00
2018-05-10T07:18:47.375Z,7928.00
2018-05-10T07:19:47.296Z,7984.00
2018-05-10T07:20:47.222Z,8120.00
2018-05-10T07:21:47.154Z,8464.00
2018-05-10T07:22:47.072Z,8904.00
2018-05-10T07:23:46.996Z,9456.00
2018-05-10T07:24:46.922Z,9668.00
2018-05-10T07:25:46.848Z,9840.00
2018-05-10T07:26:46.771Z,10248.00
2018-05-10T07:27:46.697Z,10456.00
2018-05-10T07:28:46.622Z,10460.00
2018-05-10T07:29:46.547Z,10128.00
2018-05-10T07:30:46.473Z,9640.00
2018-05-10T07:31:46.398Z,9264.00
2018-05-10T07:32:46.325Z,9276.00
2018-05-10T07:33:46.248Z,12140.00
2018-05-10T07:34:46.176Z,19776.00
2018-05-10T07:35:46.098Z,13348.00
2018-05-10T07:36:46.024Z,23168.00
2018-05-10T07:37:45.958Z,19296.00
2018-05-10T07:38:45.873Z,14220.00
2018-05-10T07:39:45.798Z,21024.00
2018-05-10T07:40:45.724Z,15140.00
2018-05-10T07:41:45.648Z,27168.00
2018-05-10T07:42:45.574Z,27136.00
2018-05-10T07:43:45.499Z,28672.00
2018-05-10T07:44:45.428Z,27648.00
2018-05-10T07:45:45.349Z,24288.00
2018-05-10T07:46:45.290Z,23872.00
2018-05-10T07:47:45.211Z,21792.00
2018-05-10T07:48:45.136Z,19872.00
2018-05-10T07:49:45.074Z,16292.00
2018-05-10T07:50:44.986Z,7708.00
2018-05-10T07:51:44.914Z,6844.00
2018-05-10T07:52:44.850Z,7380.00
2018-05-10T07:53:44.775Z,7292.00
2018-05-10T07:54:44.700Z,8296.00
2018-05-10T07:55:44.628Z,7892.00
2018-05-10T07:56:44.563Z,8684.00
2018-05-10T07:57:44.487Z,9908.00
2018-05-10T07:58:44.426Z,12936.00
2018-05-10T07:59:44.356Z,11956.00
2018-05-10T08:00:44.276Z,10988.00
2018-05-10T08:01:44.201Z,10176.00
2018-05-10T08:02:44.125Z,9224.00
2018-05-10T08:03:44.063Z,8368.00
2018-05-10T08:04:43.988Z,7904.00
2018-05-10T08:05:43.914Z,7744.00
2018-05-10T08:06:43.854Z,7668.00
2018-05-10T08:07:43.776Z,7640.00
2018-05-10T08:08:43.732Z,7592.00
2018-05-10T08:09:43.638Z,7644.00
2018-05-10T08:10:43.565Z,7628.00
2018-05-10T08:11:43.502Z,7640.00
2018-05-10T08:12:43.427Z,7628.00
2018-05-10T08:13:43.365Z,7632.00
2018-05-10T08:14:43.289Z,7684.00
2018-05-10T08:15:43.227Z,7680.00
2018-05-10T08:16:43.156Z,7692.00
2018-05-10T08:17:43.089Z,7728.00
2018-05-10T08:18:43.028Z,7744.00
2018-05-10T08:19:42.955Z,7736.00
2018-05-10T08:20:42.890Z,7740.00
2018-05-10T08:21:42.815Z,7812.00
2018-05-10T08:22:42.753Z,7832.00
2018-05-10T08:23:42.690Z,7904.00
2018-05-10T08:24:42.615Z,7924.00
2018-05-10T08:25:42.554Z,7900.00
2018-05-10T08:26:42.479Z,7920.00
2018-05-10T08:27:42.415Z,7932.00
2018-05-10T08:28:42.354Z,8016.00
2018-05-10T08:29:42.280Z,8056.00
2018-05-10T08:30:42.215Z,8164.00
2018-05-10T08:31:42.154Z,8300.00
2018-05-10T08:32:42.091Z,8444.00
2018-05-10T08:33:42.017Z,8664.00
2018-05-10T08:34:41.955Z,8796.00
2018-05-10T08:35:41.891Z,8868.00
2018-05-10T08:36:41.880Z,8956.00
2018-05-10T08:37:41.754Z,9016.00
2018-05-10T08:38:41.691Z,9040.00
2018-05-10T08:39:41.618Z,9124.00
2018-05-10T08:40:41.555Z,9200.00
2018-05-10T08:41:41.492Z,9260.00
2018-05-10T08:42:41.439Z,9348.00
2018-05-10T08:43:41.357Z,9444.00
2018-05-10T08:44:41.306Z,9540.00
2018-05-10T08:45:41.234Z,9704.00
2018-05-10T08:46:41.171Z,9924.00
2018-05-10T08:47:41.106Z,10156.00
2018-05-10T08:48:41.036Z,10308.00
2018-05-10T08:49:40.969Z,10408.00
2018-05-10T08:50:40.905Z,10648.00
2018-05-10T08:51:40.842Z,10912.00
2018-05-10T08:52:40.768Z,11040.00
2018-05-10T08:53:40.706Z,11132.00
2018-05-10T08:54:40.643Z,11296.00
2018-05-10T08:55:40.581Z,11500.00
2018-05-10T08:56:40.518Z,11708.00
2018-05-10T08:57:40.445Z,11984.00
2018-05-10T08:58:40.384Z,12252.00
2018-05-10T08:59:40.320Z,12312.00
2018-05-10T09:00:40.257Z,12128.00
2018-05-10T09:01:40.194Z,12428.00
2018-05-10T09:02:40.132Z,12700.00
2018-05-10T09:03:40.057Z,13076.00
2018-05-10T09:04:39.994Z,13304.00
2018-05-10T09:05:39.933Z,13324.00
2018-05-10T09:06:39.869Z,13368.00
2018-05-10T09:07:39.808Z,13484.00
2018-05-10T09:08:39.744Z,13552.00
2018-05-10T09:09:39.817Z,13712.00
2018-05-10T09:10:39.608Z,13924.00
2018-05-10T09:11:39.544Z,14044.00
2018-05-10T09:12:39.483Z,14112.00
2018-05-10T09:13:39.433Z,14324.00
2018-05-10T09:14:39.346Z,14348.00
2018-05-10T09:15:39.284Z,14604.00
2018-05-10T09:16:39.222Z,14644.00
2018-05-10T09:17:39.158Z,14836.00
2018-05-10T09:18:39.096Z,15264.00
2018-05-10T09:19:39.039Z,15300.00
2018-05-10T09:20:38.971Z,14684.00
2018-05-10T09:21:38.909Z,15128.00
2018-05-10T09:22:38.849Z,16384.00
2018-05-10T09:23:38.772Z,16992.00
2018-05-10T09:24:38.709Z,17440.00
2018-05-10T09:25:38.645Z,17888.00
2018-05-10T09:26:38.596Z,19008.00
2018-05-10T09:27:38.534Z,20096.00
2018-05-10T09:28:38.460Z,21376.00
2018-05-10T09:29:38.399Z,21632.00
2018-05-10T09:30:38.335Z,20320.00
2018-05-10T09:31:38.309Z,19808.00
2018-05-10T09:32:38.199Z,19648.00
2018-05-10T09:33:38.135Z,19456.00
2018-05-10T09:34:38.072Z,19072.00
2018-05-10T09:35:38.010Z,18528.00
2018-05-10T09:36:37.947Z,18400.00
2018-05-10T09:37:37.887Z,18048.00
2018-05-10T09:38:37.836Z,15456.00
2018-05-10T09:39:37.761Z,18208.00
2018-05-10T09:40:37.697Z,18208.00
2018-05-10T09:41:37.636Z,18144.00
2018-05-10T09:42:37.564Z,14864.00
2018-05-10T09:43:37.499Z,16268.00
2018-05-10T09:44:37.436Z,7884.00
2018-05-10T09:45:37.374Z,5904.00
2018-05-10T09:46:37.312Z,5824.00
2018-05-10T09:47:37.249Z,5880.00
2018-05-10T09:48:37.187Z,5912.00
2018-05-10T09:49:37.125Z,5944.00
2018-05-10T09:50:37.062Z,5984.00
2018-05-10T09:51:37.005Z,6024.00
2018-05-10T09:52:36.961Z,6088.00
2018-05-10T09:53:36.862Z,6064.00
2018-05-10T09:54:36.799Z,6008.00
2018-05-10T09:55:36.738Z,5856.00
2018-05-10T09:56:36.670Z,5752.00
2018-05-10T09:57:36.599Z,5968.00
2018-05-10T09:58:36.538Z,6024.00
2018-05-10T09:59:36.475Z,6128.00
2018-05-10T10:00:36.400Z,6140.00
2018-05-10T10:01:36.338Z,6108.00
2018-05-10T10:02:36.275Z,6248.00
2018-05-10T10:03:36.202Z,6260.00
2018-05-10T10:04:36.138Z,6228.00
2018-05-10T10:05:36.064Z,6544.00
2018-05-10T10:06:36.001Z,6676.00
2018-05-10T10:07:35.940Z,6604.00
2018-05-10T10:08:35.864Z,6756.00
2018-05-10T10:09:35.801Z,6716.00
2018-05-10T10:10:35.729Z,6732.00
2018-05-10T10:11:35.748Z,6888.00
2018-05-10T10:12:35.592Z,7044.00
2018-05-10T10:13:35.526Z,7096.00
2018-05-10T10:14:35.453Z,7260.00
2018-05-10T10:15:35.455Z,7448.00
2018-05-10T10:16:35.327Z,7488.00
2018-05-10T10:17:35.277Z,7400.00
2018-05-10T10:18:35.193Z,7296.00
2018-05-10T10:19:35.117Z,7256.00
2018-05-10T10:20:35.052Z,7232.00
2018-05-10T10:21:34.991Z,7268.00
2018-05-10T10:22:34.918Z,7476.00
2018-05-10T10:23:34.843Z,7880.00
2018-05-10T10:24:34.778Z,8212.00
2018-05-10T10:25:34.703Z,6832.00
2018-05-10T10:26:34.638Z,8444.00
2018-05-10T10:27:34.569Z,10000.00
2018-05-10T10:28:34.494Z,8884.00
2018-05-10T10:29:34.429Z,8616.00
2018-05-10T10:30:34.353Z,8664.00
2018-05-10T10:31:34.291Z,12444.00
2018-05-10T10:32:34.221Z,9820.00
2018-05-10T10:33:34.154Z,11892.00
2018-05-10T10:34:34.186Z,21952.00
2018-05-10T10:35:34.020Z,21888.00
2018-05-10T10:36:33.943Z,14564.00
2018-05-10T10:37:33.892Z,16864.00
2018-05-10T10:38:33.806Z,18912.00
2018-05-10T10:39:33.742Z,13540.00
2018-05-10T10:40:33.667Z,14492.00
2018-05-10T10:41:33.604Z,18144.00
2018-05-10T10:42:33.542Z,21472.00
2018-05-10T10:43:33.468Z,22976.00
2018-05-10T10:44:33.406Z,16864.00
2018-05-10T10:45:33.340Z,30752.00
2018-05-10T10:46:33.268Z,36160.00
2018-05-10T10:47:33.204Z,38048.00
2018-05-10T10:48:33.131Z,26688.00
2018-05-10T10:49:33.068Z,10568.00
2018-05-10T10:50:33.005Z,11064.00
2018-05-10T10:51:32.943Z,39968.00
2018-05-10T10:52:32.880Z,42912.00
2018-05-10T10:53:32.805Z,44992.00
2018-05-10T10:54:32.744Z,43744.00
2018-05-10T10:55:32.695Z,40992.00
2018-05-10T10:56:32.623Z,45280.00
2018-05-10T10:57:32.544Z,46144.00
2018-05-10T10:58:32.494Z,15792.00
2018-05-10T10:59:32.424Z,16752.00
2018-05-10T11:00:32.356Z,38208.00
2018-05-10T11:01:32.370Z,35136.00
2018-05-10T11:02:32.231Z,33664.00
2018-05-10T11:03:32.156Z,32192.00
2018-05-10T11:04:32.097Z,30208.00
2018-05-10T11:05:32.032Z,30240.00
2018-05-10T11:06:31.972Z,32064.00
2018-05-10T11:07:31.906Z,33504.00
2018-05-10T11:08:31.833Z,39136.00
2018-05-10T11:09:31.771Z,35808.00
2018-05-10T11:10:31.708Z,35840.00
2018-05-10T11:11:31.645Z,36160.00
2018-05-10T11:12:31.582Z,14376.00
2018-05-10T11:13:31.521Z,13708.00
2018-05-10T11:14:31.515Z,14216.00
2018-05-10T11:15:31.447Z,31072.00
2018-05-10T11:16:31.325Z,13280.00
2018-05-10T11:17:31.258Z,13028.00
2018-05-10T11:18:31.196Z,41248.00
2018-05-10T11:19:31.133Z,42368.00
2018-05-10T11:20:31.059Z,24128.00
2018-05-10T11:21:30.996Z,14932.00
2018-05-10T11:22:31.020Z,14500.00
2018-05-10T11:23:30.872Z,12912.00
2018-05-10T11:24:30.809Z,13220.00
2018-05-10T11:25:30.734Z,33888.00
2018-05-10T11:26:30.672Z,62400.00
2018-05-10T11:27:30.609Z,64480.00
2018-05-10T11:28:30.547Z,65472.00
2018-05-10T11:29:30.484Z,61280.00
2018-05-10T11:30:30.409Z,65408.00
2018-05-10T11:31:30.347Z,21152.00
2018-05-10T11:32:30.288Z,62080.00
2018-05-10T11:33:30.226Z,62560.00
2018-05-10T11:34:30.148Z,65472.00
2018-05-10T11:35:30.085Z,60960.00
2018-05-10T11:36:30.027Z,62368.00
2018-05-10T11:37:29.960Z,59200.00
2018-05-10T11:38:29.899Z,54272.00
2018-05-10T11:39:29.824Z,15652.00
2018-05-10T11:40:29.761Z,19712.00
2018-05-10T11:41:29.699Z,14976.00
2018-05-10T11:42:29.635Z,13960.00
2018-05-10T11:43:29.573Z,16432.00
2018-05-10T11:44:29.578Z,66496.00
2018-05-10T11:45:29.438Z,68128.00
2018-05-10T11:46:29.385Z,26560.00
2018-05-10T11:47:29.324Z,72416.00
2018-05-10T11:48:29.250Z,79136.00
2018-05-10T11:49:29.186Z,81568.00
2018-05-10T11:50:29.125Z,73536.00
2018-05-10T11:51:29.049Z,14468.00
2018-05-10T11:52:28.989Z,10396.00
2018-05-10T11:53:28.925Z,9112.00
2018-05-10T11:54:28.850Z,9004.00
2018-05-10T11:55:28.790Z,13072.00
2018-05-10T11:56:28.725Z,80192.00
2018-05-10T11:57:28.662Z,77408.00
2018-05-10T11:58:28.589Z,70112.00
2018-05-10T11:59:28.526Z,69600.00
2018-05-10T12:00:28.463Z,63872.00
2018-05-10T12:01:28.401Z,60608.00
2018-05-10T12:02:28.425Z,64384.00
2018-05-10T12:03:28.268Z,59040.00
2018-05-10T12:04:28.201Z,64160.00
2018-05-10T12:05:28.140Z,75456.00
2018-05-10T12:06:28.088Z,73696.00
2018-05-10T12:07:28.026Z,66592.00
2018-05-10T12:08:27.940Z,63872.00
2018-05-10T12:09:27.877Z,16704.00
2018-05-10T12:10:27.814Z,17728.00
2018-05-10T12:11:27.753Z,14660.00
2018-05-10T12:12:27.689Z,14268.00
2018-05-10T12:13:27.632Z,36960.00
2018-05-10T12:14:27.583Z,34176.00
2018-05-10T12:15:27.490Z,35328.00
2018-05-10T12:16:27.428Z,39936.00
2018-05-10T12:17:27.377Z,41472.00
2018-05-10T12:18:27.306Z,50336.00